sensor_id;sensor_type;location;lat;lon;timestamp;temperature;humidity
12948;DHT22;6539;49.476;8.484;2022-11-11T00:01:10;11.20;99.90
12948;DHT22;6539;49.476;8.484;2022-11-11T00:03:38;11.60;99.90
12948;DHT22;6539;49.476;8.484;2022-11-11T00:06:14;11.80;99.90
12948;DHT22;6539;49.476;8.484;2022-11-11T00:08:45;11.30;99.90
12948;DHT22;6539;49.476;8.484;2022-11-11T00:11:12;11.70;99.90
12948;DHT22;6539;49.476;8.484;2022-11-11T00:13:40;11.30;99.90
12948;DHT22;6539;49.476;8.484;2022-11-11T00:16:10;11.50;99.90
12948;DHT22;6539;49.476;8.484;2022-11-11T00:18:38;11.20;99.90
12948;DHT22;6539;49.476;8.484;2022-11-11T00:21:24;11.20;99.90
12948;DHT22;6539;49.476;8.484;2022-11-11T00:23:52;11.30;99.90
12948;DHT22;6539;49.476;8.484;2022-11-11T00:26:39;11.40;99.90
12948;DHT22;6539;49.476;8.484;2022-11-11T00:31:34;11.10;99.90
12948;DHT22;6539;49.476;8.484;2022-11-11T00:34:00;11.30;99.90
12948;DHT22;6539;49.476;8.484;2022-11-11T00:36:26;10.90;99.90
12948;DHT22;6539;49.476;8.484;2022-11-11T00:38:52;11.30;99.90
12948;DHT22;6539;49.476;8.484;2022-11-11T00:41:21;11.00;99.90
12948;DHT22;6539;49.476;8.484;2022-11-11T00:43:51;10.80;99.90
12948;DHT22;6539;49.476;8.484;2022-11-11T00:46:18;11.30;99.90
12948;DHT22;6539;49.476;8.484;2022-11-11T00:49:06;11.50;99.90
12948;DHT22;6539;49.476;8.484;2022-11-11T00:51:55;11.30;99.90
12948;DHT22;6539;49.476;8.484;2022-11-11T00:54:21;10.30;99.90
12948;DHT22;6539;49.476;8.484;2022-11-11T00:56:46;11.00;99.90
12948;DHT22;6539;49.476;8.484;2022-11-11T01:01:41;11.40;99.90
12948;DHT22;6539;49.476;8.484;2022-11-11T01:04:09;10.90;99.90
12948;DHT22;6539;49.476;8.484;2022-11-11T01:06:35;10.90;99.90
12948;DHT22;6539;49.476;8.484;2022-11-11T01:09:05;10.80;99.90
12948;DHT22;6539;49.476;8.484;2022-11-11T01:11:33;10.80;99.90
12948;DHT22;6539;49.476;8.484;2022-11-11T01:13:59;10.70;99.90
12948;DHT22;6539;49.476;8.484;2022-11-11T01:16:30;11.10;99.90
12948;DHT22;6539;49.476;8.484;2022-11-11T01:21:26;10.80;99.90
12948;DHT22;6539;49.476;8.484;2022-11-11T01:23:52;10.60;99.90
12948;DHT22;6539;49.476;8.484;2022-11-11T01:26:25;10.40;99.90
12948;DHT22;6539;49.476;8.484;2022-11-11T01:28:54;10.60;99.90
12948;DHT22;6539;49.476;8.484;2022-11-11T01:31:24;10.60;99.90
12948;DHT22;6539;49.476;8.484;2022-11-11T01:33:51;10.30;99.90
12948;DHT22;6539;49.476;8.484;2022-11-11T01:36:21;10.30;99.90
12948;DHT22;6539;49.476;8.484;2022-11-11T01:38:52;10.30;99.90
12948;DHT22;6539;49.476;8.484;2022-11-11T01:41:24;10.10;99.90
12948;DHT22;6539;49.476;8.484;2022-11-11T01:52:13;10.30;99.90
12948;DHT22;6539;49.476;8.484;2022-11-11T02:00:16;10.60;99.90
12948;DHT22;6539;49.476;8.484;2022-11-11T02:03:04;10.40;99.90
12948;DHT22;6539;49.476;8.484;2022-11-11T02:05:33;10.70;99.90
12948;DHT22;6539;49.476;8.484;2022-11-11T02:08:17;10.30;99.90
12948;DHT22;6539;49.476;8.484;2022-11-11T02:11:08;10.40;99.90
12948;DHT22;6539;49.476;8.484;2022-11-11T02:13:41;10.30;99.90
12948;DHT22;6539;49.476;8.484;2022-11-11T02:16:39;10.20;99.90
12948;DHT22;6539;49.476;8.484;2022-11-11T02:19:05;10.50;99.90
12948;DHT22;6539;49.476;8.484;2022-11-11T02:21:45;10.60;99.90
12948;DHT22;6539;49.476;8.484;2022-11-11T02:24:17;10.40;99.90
12948;DHT22;6539;49.476;8.484;2022-11-11T02:26:45;10.20;99.90
12948;DHT22;6539;49.476;8.484;2022-11-11T02:29:16;10.30;99.90
12948;DHT22;6539;49.476;8.484;2022-11-11T02:34:10;10.10;99.90
12948;DHT22;6539;49.476;8.484;2022-11-11T02:36:39;10.20;99.90
12948;DHT22;6539;49.476;8.484;2022-11-11T02:39:07;10.30;99.90
12948;DHT22;6539;49.476;8.484;2022-11-11T02:51:42;10.30;99.90
12948;DHT22;6539;49.476;8.484;2022-11-11T02:54:15;10.20;99.90
12948;DHT22;6539;49.476;8.484;2022-11-11T02:56:41;10.20;99.90
12948;DHT22;6539;49.476;8.484;2022-11-11T02:59:28;10.30;99.90
12948;DHT22;6539;49.476;8.484;2022-11-11T03:01:58;10.30;99.90
12948;DHT22;6539;49.476;8.484;2022-11-11T03:04:24;10.20;99.90
12948;DHT22;6539;49.476;8.484;2022-11-11T03:06:53;9.90;99.90
12948;DHT22;6539;49.476;8.484;2022-11-11T03:09:18;9.80;99.90
12948;DHT22;6539;49.476;8.484;2022-11-11T03:11:44;9.90;99.90
12948;DHT22;6539;49.476;8.484;2022-11-11T03:14:10;9.70;99.90
12948;DHT22;6539;49.476;8.484;2022-11-11T03:16:36;10.10;99.90
12948;DHT22;6539;49.476;8.484;2022-11-11T03:19:20;9.90;99.90
12948;DHT22;6539;49.476;8.484;2022-11-11T03:21:46;9.90;99.90
12948;DHT22;6539;49.476;8.484;2022-11-11T03:24:14;9.90;99.90
12948;DHT22;6539;49.476;8.484;2022-11-11T03:26:40;10.30;99.90
12948;DHT22;6539;49.476;8.484;2022-11-11T03:29:07;9.90;99.90
12948;DHT22;6539;49.476;8.484;2022-11-11T03:31:32;9.80;99.90
12948;DHT22;6539;49.476;8.484;2022-11-11T03:34:01;9.80;99.90
12948;DHT22;6539;49.476;8.484;2022-11-11T03:36:47;9.90;99.90
12948;DHT22;6539;49.476;8.484;2022-11-11T03:39:33;10.20;99.90
12948;DHT22;6539;49.476;8.484;2022-11-11T03:42:02;9.90;99.90
12948;DHT22;6539;49.476;8.484;2022-11-11T03:44:27;10.20;99.90
12948;DHT22;6539;49.476;8.484;2022-11-11T03:46:54;10.10;99.90
12948;DHT22;6539;49.476;8.484;2022-11-11T03:49:24;10.00;99.90
12948;DHT22;6539;49.476;8.484;2022-11-11T03:51:52;10.00;99.90
12948;DHT22;6539;49.476;8.484;2022-11-11T03:56:43;10.10;99.90
12948;DHT22;6539;49.476;8.484;2022-11-11T03:59:12;10.00;99.90
12948;DHT22;6539;49.476;8.484;2022-11-11T04:01:40;9.80;99.90
12948;DHT22;6539;49.476;8.484;2022-11-11T04:07:14;9.90;99.90
12948;DHT22;6539;49.476;8.484;2022-11-11T04:10:03;9.90;99.90
12948;DHT22;6539;49.476;8.484;2022-11-11T04:12:47;9.60;99.90
12948;DHT22;6539;49.476;8.484;2022-11-11T04:18:17;9.90;99.90
12948;DHT22;6539;49.476;8.484;2022-11-11T04:21:03;9.50;99.90
12948;DHT22;6539;49.476;8.484;2022-11-11T04:27:03;9.50;99.90
12948;DHT22;6539;49.476;8.484;2022-11-11T04:29:34;9.60;99.90
12948;DHT22;6539;49.476;8.484;2022-11-11T04:34:48;9.90;99.90
12948;DHT22;6539;49.476;8.484;2022-11-11T04:37:18;9.80;99.90
12948;DHT22;6539;49.476;8.484;2022-11-11T04:39:47;9.60;99.90
12948;DHT22;6539;49.476;8.484;2022-11-11T04:42:32;9.60;99.90
12948;DHT22;6539;49.476;8.484;2022-11-11T04:44:59;9.90;99.90
12948;DHT22;6539;49.476;8.484;2022-11-11T04:50:19;9.90;99.90
12948;DHT22;6539;49.476;8.484;2022-11-11T04:52:50;9.60;99.90
12948;DHT22;6539;49.476;8.484;2022-11-11T04:55:21;9.20;99.90
12948;DHT22;6539;49.476;8.484;2022-11-11T04:58:08;9.80;99.90
12948;DHT22;6539;49.476;8.484;2022-11-11T05:03:06;9.60;99.90
12948;DHT22;6539;49.476;8.484;2022-11-11T05:05:47;9.40;99.90
12948;DHT22;6539;49.476;8.484;2022-11-11T05:08:34;9.50;99.90
12948;DHT22;6539;49.476;8.484;2022-11-11T05:11:24;9.30;99.90
12948;DHT22;6539;49.476;8.484;2022-11-11T05:13:59;9.40;99.90
12948;DHT22;6539;49.476;8.484;2022-11-11T05:16:50;9.40;99.90
12948;DHT22;6539;49.476;8.484;2022-11-11T05:19:37;8.90;99.90
12948;DHT22;6539;49.476;8.484;2022-11-11T05:25:07;8.40;99.90
12948;DHT22;6539;49.476;8.484;2022-11-11T05:27:56;8.50;99.90
12948;DHT22;6539;49.476;8.484;2022-11-11T05:30:25;8.90;99.90
12948;DHT22;6539;49.476;8.484;2022-11-11T05:32:56;9.00;99.90
12948;DHT22;6539;49.476;8.484;2022-11-11T05:35:22;8.80;99.90
12948;DHT22;6539;49.476;8.484;2022-11-11T05:37:50;9.00;99.90
12948;DHT22;6539;49.476;8.484;2022-11-11T05:43:02;9.10;99.90
12948;DHT22;6539;49.476;8.484;2022-11-11T05:45:28;9.30;99.90
12948;DHT22;6539;49.476;8.484;2022-11-11T05:47:54;9.30;99.90
12948;DHT22;6539;49.476;8.484;2022-11-11T05:52:49;9.20;99.90
12948;DHT22;6539;49.476;8.484;2022-11-11T05:55:20;9.00;99.90
12948;DHT22;6539;49.476;8.484;2022-11-11T05:57:45;9.30;99.90
12948;DHT22;6539;49.476;8.484;2022-11-11T06:00:14;8.70;99.90
12948;DHT22;6539;49.476;8.484;2022-11-11T06:02:42;9.10;99.90
12948;DHT22;6539;49.476;8.484;2022-11-11T06:07:38;9.00;99.90
12948;DHT22;6539;49.476;8.484;2022-11-11T06:12:54;8.90;99.90
12948;DHT22;6539;49.476;8.484;2022-11-11T06:15:33;8.50;99.90
12948;DHT22;6539;49.476;8.484;2022-11-11T06:18:04;8.80;99.90
12948;DHT22;6539;49.476;8.484;2022-11-11T06:20:32;8.80;99.90
12948;DHT22;6539;49.476;8.484;2022-11-11T06:23:00;8.70;99.90
12948;DHT22;6539;49.476;8.484;2022-11-11T06:25:29;8.50;99.90
12948;DHT22;6539;49.476;8.484;2022-11-11T06:28:15;8.70;99.90
12948;DHT22;6539;49.476;8.484;2022-11-11T06:30:47;8.70;99.90
12948;DHT22;6539;49.476;8.484;2022-11-11T06:35:42;8.30;99.90
12948;DHT22;6539;49.476;8.484;2022-11-11T06:38:11;8.90;99.90
12948;DHT22;6539;49.476;8.484;2022-11-11T06:40:38;8.70;99.90
12948;DHT22;6539;49.476;8.484;2022-11-11T06:43:09;8.90;99.90
12948;DHT22;6539;49.476;8.484;2022-11-11T06:48:02;8.90;99.90
12948;DHT22;6539;49.476;8.484;2022-11-11T06:50:28;9.10;99.90
12948;DHT22;6539;49.476;8.484;2022-11-11T06:53:08;9.20;99.90
12948;DHT22;6539;49.476;8.484;2022-11-11T06:55:38;9.10;99.90
12948;DHT22;6539;49.476;8.484;2022-11-11T06:58:18;8.90;99.90
12948;DHT22;6539;49.476;8.484;2022-11-11T07:00:47;9.00;99.90
12948;DHT22;6539;49.476;8.484;2022-11-11T07:03:16;9.20;99.90
12948;DHT22;6539;49.476;8.484;2022-11-11T07:05:44;8.90;99.90
12948;DHT22;6539;49.476;8.484;2022-11-11T07:08:16;9.10;99.90
12948;DHT22;6539;49.476;8.484;2022-11-11T07:10:48;9.00;99.90
12948;DHT22;6539;49.476;8.484;2022-11-11T07:13:14;9.10;99.90
12948;DHT22;6539;49.476;8.484;2022-11-11T07:15:42;9.00;99.90
12948;DHT22;6539;49.476;8.484;2022-11-11T07:18:09;9.00;99.90
12948;DHT22;6539;49.476;8.484;2022-11-11T07:20:38;8.90;99.90
12948;DHT22;6539;49.476;8.484;2022-11-11T07:23:04;9.20;99.90
12948;DHT22;6539;49.476;8.484;2022-11-11T07:25:33;9.00;99.90
12948;DHT22;6539;49.476;8.484;2022-11-11T07:28:01;9.00;99.90
12948;DHT22;6539;49.476;8.484;2022-11-11T07:30:29;8.80;99.90
12948;DHT22;6539;49.476;8.484;2022-11-11T07:32:57;8.80;99.90
12948;DHT22;6539;49.476;8.484;2022-11-11T07:35:23;9.20;99.90
12948;DHT22;6539;49.476;8.484;2022-11-11T07:40:17;8.90;99.90
12948;DHT22;6539;49.476;8.484;2022-11-11T07:42:43;9.20;99.90
12948;DHT22;6539;49.476;8.484;2022-11-11T07:45:11;9.10;99.90
12948;DHT22;6539;49.476;8.484;2022-11-11T07:50:05;9.20;99.90
12948;DHT22;6539;49.476;8.484;2022-11-11T07:52:34;9.10;99.90
12948;DHT22;6539;49.476;8.484;2022-11-11T07:55:03;9.30;99.90
12948;DHT22;6539;49.476;8.484;2022-11-11T07:59:56;9.60;99.90
12948;DHT22;6539;49.476;8.484;2022-11-11T08:02:22;9.40;99.90
12948;DHT22;6539;49.476;8.484;2022-11-11T08:04:48;9.00;99.90
12948;DHT22;6539;49.476;8.484;2022-11-11T08:07:13;9.50;99.90
12948;DHT22;6539;49.476;8.484;2022-11-11T08:12:08;9.20;99.90
12948;DHT22;6539;49.476;8.484;2022-11-11T08:14:52;9.30;99.90
12948;DHT22;6539;49.476;8.484;2022-11-11T08:17:18;9.20;99.90
12948;DHT22;6539;49.476;8.484;2022-11-11T08:19:45;9.10;99.90
12948;DHT22;6539;49.476;8.484;2022-11-11T08:24:39;9.30;99.90
12948;DHT22;6539;49.476;8.484;2022-11-11T08:27:05;9.00;99.90
12948;DHT22;6539;49.476;8.484;2022-11-11T08:29:33;9.40;99.90
12948;DHT22;6539;49.476;8.484;2022-11-11T08:34:25;9.10;99.90
12948;DHT22;6539;49.476;8.484;2022-11-11T08:36:53;9.10;99.90
12948;DHT22;6539;49.476;8.484;2022-11-11T08:41:45;9.00;99.90
12948;DHT22;6539;49.476;8.484;2022-11-11T08:46:37;9.20;99.90
12948;DHT22;6539;49.476;8.484;2022-11-11T08:51:31;9.20;99.90
12948;DHT22;6539;49.476;8.484;2022-11-11T08:53:57;9.20;99.90
12948;DHT22;6539;49.476;8.484;2022-11-11T08:56:25;9.10;99.90
12948;DHT22;6539;49.476;8.484;2022-11-11T08:58:51;9.20;99.90
12948;DHT22;6539;49.476;8.484;2022-11-11T09:01:21;9.70;99.90
12948;DHT22;6539;49.476;8.484;2022-11-11T09:03:50;9.40;99.90
12948;DHT22;6539;49.476;8.484;2022-11-11T09:06:18;9.50;99.90
12948;DHT22;6539;49.476;8.484;2022-11-11T09:08:44;9.50;99.90
12948;DHT22;6539;49.476;8.484;2022-11-11T09:13:38;9.50;99.90
12948;DHT22;6539;49.476;8.484;2022-11-11T09:16:07;9.50;99.90
12948;DHT22;6539;49.476;8.484;2022-11-11T09:21:04;10.10;99.90
12948;DHT22;6539;49.476;8.484;2022-11-11T09:23:32;10.00;99.90
12948;DHT22;6539;49.476;8.484;2022-11-11T09:26:01;9.90;99.90
12948;DHT22;6539;49.476;8.484;2022-11-11T09:28:31;10.30;99.90
12948;DHT22;6539;49.476;8.484;2022-11-11T09:31:00;10.10;99.90
12948;DHT22;6539;49.476;8.484;2022-11-11T09:33:26;9.90;99.90
12948;DHT22;6539;49.476;8.484;2022-11-11T09:38:18;9.80;99.90
12948;DHT22;6539;49.476;8.484;2022-11-11T09:40:57;9.40;99.90
12948;DHT22;6539;49.476;8.484;2022-11-11T09:46:37;10.20;99.90
12948;DHT22;6539;49.476;8.484;2022-11-11T09:52:42;9.90;99.90
12948;DHT22;6539;49.476;8.484;2022-11-11T09:55:35;9.80;99.90
12948;DHT22;6539;49.476;8.484;2022-11-11T10:01:16;10.10;99.90
12948;DHT22;6539;49.476;8.484;2022-11-11T10:07:33;10.10;99.90
12948;DHT22;6539;49.476;8.484;2022-11-11T10:12:56;10.30;99.90
12948;DHT22;6539;49.476;8.484;2022-11-11T10:15:35;10.10;99.90
12948;DHT22;6539;49.476;8.484;2022-11-11T10:18:32;10.30;99.90
12948;DHT22;6539;49.476;8.484;2022-11-11T10:21:25;10.30;99.90
12948;DHT22;6539;49.476;8.484;2022-11-11T10:24:12;10.10;99.90
12948;DHT22;6539;49.476;8.484;2022-11-11T10:26:46;10.10;99.90
12948;DHT22;6539;49.476;8.484;2022-11-11T10:29:21;10.10;99.90
12948;DHT22;6539;49.476;8.484;2022-11-11T10:32:26;10.70;99.90
12948;DHT22;6539;49.476;8.484;2022-11-11T10:35:26;10.60;99.90
12948;DHT22;6539;49.476;8.484;2022-11-11T10:38:34;10.00;99.90
12948;DHT22;6539;49.476;8.484;2022-11-11T10:41:20;10.30;99.90
12948;DHT22;6539;49.476;8.484;2022-11-11T10:46:31;10.10;99.90
12948;DHT22;6539;49.476;8.484;2022-11-11T10:49:13;9.90;99.90
12948;DHT22;6539;49.476;8.484;2022-11-11T10:51:51;9.90;99.90
12948;DHT22;6539;49.476;8.484;2022-11-11T10:55:01;10.20;99.90
12948;DHT22;6539;49.476;8.484;2022-11-11T10:58:18;10.20;99.90
12948;DHT22;6539;49.476;8.484;2022-11-11T11:00:52;10.10;99.90
12948;DHT22;6539;49.476;8.484;2022-11-11T11:06:03;10.20;99.90
12948;DHT22;6539;49.476;8.484;2022-11-11T11:08:46;9.90;99.90
12948;DHT22;6539;49.476;8.484;2022-11-11T11:11:30;10.00;99.90
12948;DHT22;6539;49.476;8.484;2022-11-11T11:14:12;10.10;99.90
12948;DHT22;6539;49.476;8.484;2022-11-11T11:16:50;10.20;99.90
12948;DHT22;6539;49.476;8.484;2022-11-11T11:19:25;10.50;99.90
12948;DHT22;6539;49.476;8.484;2022-11-11T11:24:27;10.30;99.90
12948;DHT22;6539;49.476;8.484;2022-11-11T11:27:02;10.30;99.90
12948;DHT22;6539;49.476;8.484;2022-11-11T11:32:16;10.60;99.90
12948;DHT22;6539;49.476;8.484;2022-11-11T11:34:56;10.80;99.90
12948;DHT22;6539;49.476;8.484;2022-11-11T11:37:24;10.90;99.90
12948;DHT22;6539;49.476;8.484;2022-11-11T11:40:17;11.00;99.90
12948;DHT22;6539;49.476;8.484;2022-11-11T11:42:43;10.70;99.90
12948;DHT22;6539;49.476;8.484;2022-11-11T11:45:26;10.90;99.90
12948;DHT22;6539;49.476;8.484;2022-11-11T12:00:34;10.60;99.90
12948;DHT22;6539;49.476;8.484;2022-11-11T12:03:35;10.10;99.90
12948;DHT22;6539;49.476;8.484;2022-11-11T12:06:24;10.50;99.90
12948;DHT22;6539;49.476;8.484;2022-11-11T12:15:09;10.70;99.90
12948;DHT22;6539;49.476;8.484;2022-11-11T12:23:57;10.40;99.90
12948;DHT22;6539;49.476;8.484;2022-11-11T12:29:52;10.40;99.90
12948;DHT22;6539;49.476;8.484;2022-11-11T12:44:07;10.60;99.90
12948;DHT22;6539;49.476;8.484;2022-11-11T12:55:29;10.60;99.90
12948;DHT22;6539;49.476;8.484;2022-11-11T13:07:38;11.20;99.90
12948;DHT22;6539;49.476;8.484;2022-11-11T13:10:37;11.10;99.90
12948;DHT22;6539;49.476;8.484;2022-11-11T13:18:59;10.70;99.90
12948;DHT22;6539;49.476;8.484;2022-11-11T13:21:51;11.10;99.90
12948;DHT22;6539;49.476;8.484;2022-11-11T13:24:22;11.20;99.90
12948;DHT22;6539;49.476;8.484;2022-11-11T13:26:53;11.40;99.90
12948;DHT22;6539;49.476;8.484;2022-11-11T13:38:03;11.20;99.90
12948;DHT22;6539;49.476;8.484;2022-11-11T13:43:04;11.20;99.90
12948;DHT22;6539;49.476;8.484;2022-11-11T13:45:50;11.10;99.90
12948;DHT22;6539;49.476;8.484;2022-11-11T13:48:34;10.90;99.90
12948;DHT22;6539;49.476;8.484;2022-11-11T13:51:37;11.00;99.90
12948;DHT22;6539;49.476;8.484;2022-11-11T13:57:31;11.10;99.90
12948;DHT22;6539;49.476;8.484;2022-11-11T14:00:04;11.20;99.90
12948;DHT22;6539;49.476;8.484;2022-11-11T14:08:07;11.00;99.90
12948;DHT22;6539;49.476;8.484;2022-11-11T14:15:51;11.10;99.90
12948;DHT22;6539;49.476;8.484;2022-11-11T14:20:50;11.00;99.90
12948;DHT22;6539;49.476;8.484;2022-11-11T14:28:52;11.30;99.90
12948;DHT22;6539;49.476;8.484;2022-11-11T14:34:53;11.20;99.90
12948;DHT22;6539;49.476;8.484;2022-11-11T14:37:26;11.10;99.90
12948;DHT22;6539;49.476;8.484;2022-11-11T14:40:11;11.50;99.90
12948;DHT22;6539;49.476;8.484;2022-11-11T14:42:42;11.40;99.90
12948;DHT22;6539;49.476;8.484;2022-11-11T14:47:50;11.20;99.90
12948;DHT22;6539;49.476;8.484;2022-11-11T14:53:06;11.20;99.90
12948;DHT22;6539;49.476;8.484;2022-11-11T14:55:39;11.20;99.90
12948;DHT22;6539;49.476;8.484;2022-11-11T14:58:12;11.20;99.90
12948;DHT22;6539;49.476;8.484;2022-11-11T15:00:58;10.90;99.90
12948;DHT22;6539;49.476;8.484;2022-11-11T15:03:41;11.10;99.90
12948;DHT22;6539;49.476;8.484;2022-11-11T15:06:32;11.00;99.90
12948;DHT22;6539;49.476;8.484;2022-11-11T15:09:25;10.70;99.90
12948;DHT22;6539;49.476;8.484;2022-11-11T15:12:02;11.40;99.90
12948;DHT22;6539;49.476;8.484;2022-11-11T15:14:44;11.00;99.90
12948;DHT22;6539;49.476;8.484;2022-11-11T15:21:08;10.80;99.90
12948;DHT22;6539;49.476;8.484;2022-11-11T15:27:31;11.00;99.90
12948;DHT22;6539;49.476;8.484;2022-11-11T15:30:12;11.00;99.90
12948;DHT22;6539;49.476;8.484;2022-11-11T15:33:03;10.70;99.90
12948;DHT22;6539;49.476;8.484;2022-11-11T15:36:03;11.00;99.90
12948;DHT22;6539;49.476;8.484;2022-11-11T15:38:42;10.40;99.90
12948;DHT22;6539;49.476;8.484;2022-11-11T15:41:23;10.50;99.90
12948;DHT22;6539;49.476;8.484;2022-11-11T15:43:52;10.60;99.90
12948;DHT22;6539;49.476;8.484;2022-11-11T15:46:27;10.50;99.90
12948;DHT22;6539;49.476;8.484;2022-11-11T15:51:31;10.70;99.90
12948;DHT22;6539;49.476;8.484;2022-11-11T15:56:41;10.60;99.90
12948;DHT22;6539;49.476;8.484;2022-11-11T15:59:22;10.50;99.90
12948;DHT22;6539;49.476;8.484;2022-11-11T16:01:53;10.40;99.90
12948;DHT22;6539;49.476;8.484;2022-11-11T16:04:23;10.20;99.90
12948;DHT22;6539;49.476;8.484;2022-11-11T16:06:50;10.70;99.90
12948;DHT22;6539;49.476;8.484;2022-11-11T16:09:23;10.40;99.90
12948;DHT22;6539;49.476;8.484;2022-11-11T16:11:53;10.60;99.90
12948;DHT22;6539;49.476;8.484;2022-11-11T16:14:41;10.50;99.90
12948;DHT22;6539;49.476;8.484;2022-11-11T16:17:10;10.40;99.90
12948;DHT22;6539;49.476;8.484;2022-11-11T16:19:39;10.70;99.90
12948;DHT22;6539;49.476;8.484;2022-11-11T16:22:21;10.60;99.90
12948;DHT22;6539;49.476;8.484;2022-11-11T16:27:21;10.40;99.90
12948;DHT22;6539;49.476;8.484;2022-11-11T16:29:52;11.10;99.90
12948;DHT22;6539;49.476;8.484;2022-11-11T16:32:39;10.90;99.90
12948;DHT22;6539;49.476;8.484;2022-11-11T16:35:42;10.40;99.90
12948;DHT22;6539;49.476;8.484;2022-11-11T16:40:41;10.80;99.90
12948;DHT22;6539;49.476;8.484;2022-11-11T16:46:06;10.80;99.90
12948;DHT22;6539;49.476;8.484;2022-11-11T16:51:06;10.70;99.90
12948;DHT22;6539;49.476;8.484;2022-11-11T16:54:06;10.60;99.90
12948;DHT22;6539;49.476;8.484;2022-11-11T16:56:41;10.40;99.90
12948;DHT22;6539;49.476;8.484;2022-11-11T16:59:20;10.50;99.90
12948;DHT22;6539;49.476;8.484;2022-11-11T17:01:51;10.40;99.90
12948;DHT22;6539;49.476;8.484;2022-11-11T17:12:05;10.40;99.90
12948;DHT22;6539;49.476;8.484;2022-11-11T17:14:36;10.60;99.90
12948;DHT22;6539;49.476;8.484;2022-11-11T17:17:05;10.60;99.90
12948;DHT22;6539;49.476;8.484;2022-11-11T17:19:35;10.60;99.90
12948;DHT22;6539;49.476;8.484;2022-11-11T17:22:10;10.70;99.90
12948;DHT22;6539;49.476;8.484;2022-11-11T17:24:37;10.50;99.90
12948;DHT22;6539;49.476;8.484;2022-11-11T17:27:04;10.90;99.90
12948;DHT22;6539;49.476;8.484;2022-11-11T17:29:33;10.50;99.90
12948;DHT22;6539;49.476;8.484;2022-11-11T17:32:04;10.70;99.90
12948;DHT22;6539;49.476;8.484;2022-11-11T17:34:30;10.60;99.90
12948;DHT22;6539;49.476;8.484;2022-11-11T17:36:58;10.60;99.90
12948;DHT22;6539;49.476;8.484;2022-11-11T17:41:54;10.50;99.90
12948;DHT22;6539;49.476;8.484;2022-11-11T17:46:49;10.50;99.90
12948;DHT22;6539;49.476;8.484;2022-11-11T17:56:34;10.50;99.90
12948;DHT22;6539;49.476;8.484;2022-11-11T17:59:01;10.50;99.90
12948;DHT22;6539;49.476;8.484;2022-11-11T18:03:56;10.80;99.90
12948;DHT22;6539;49.476;8.484;2022-11-11T18:06:22;10.50;99.90
12948;DHT22;6539;49.476;8.484;2022-11-11T18:08:48;10.10;99.90
12948;DHT22;6539;49.476;8.484;2022-11-11T18:16:15;10.40;99.90
12948;DHT22;6539;49.476;8.484;2022-11-11T18:18:42;10.60;99.90
12948;DHT22;6539;49.476;8.484;2022-11-11T18:21:11;10.20;99.90
12948;DHT22;6539;49.476;8.484;2022-11-11T18:23:38;10.30;99.90
12948;DHT22;6539;49.476;8.484;2022-11-11T18:26:08;10.30;99.90
12948;DHT22;6539;49.476;8.484;2022-11-11T18:28:36;10.60;99.90
12948;DHT22;6539;49.476;8.484;2022-11-11T18:31:13;10.60;99.90
12948;DHT22;6539;49.476;8.484;2022-11-11T18:33:46;10.30;99.90
12948;DHT22;6539;49.476;8.484;2022-11-11T18:36:14;10.20;99.90
12948;DHT22;6539;49.476;8.484;2022-11-11T18:38:45;10.20;99.90
12948;DHT22;6539;49.476;8.484;2022-11-11T18:41:16;10.00;99.90
12948;DHT22;6539;49.476;8.484;2022-11-11T18:43:46;10.50;99.90
12948;DHT22;6539;49.476;8.484;2022-11-11T18:46:16;10.10;99.90
12948;DHT22;6539;49.476;8.484;2022-11-11T18:48:55;10.20;99.90
12948;DHT22;6539;49.476;8.484;2022-11-11T18:51:23;10.20;99.90
12948;DHT22;6539;49.476;8.484;2022-11-11T18:56:20;10.40;99.90
12948;DHT22;6539;49.476;8.484;2022-11-11T18:58:51;10.10;99.90
12948;DHT22;6539;49.476;8.484;2022-11-11T19:01:20;9.90;99.90
12948;DHT22;6539;49.476;8.484;2022-11-11T19:03:57;9.80;99.90
12948;DHT22;6539;49.476;8.484;2022-11-11T19:06:29;10.10;99.90
12948;DHT22;6539;49.476;8.484;2022-11-11T19:09:04;10.30;99.90
12948;DHT22;6539;49.476;8.484;2022-11-11T19:11:36;10.10;99.90
12948;DHT22;6539;49.476;8.484;2022-11-11T19:14:05;10.20;99.90
12948;DHT22;6539;49.476;8.484;2022-11-11T19:16:31;10.30;99.90
12948;DHT22;6539;49.476;8.484;2022-11-11T19:19:01;10.00;99.90
12948;DHT22;6539;49.476;8.484;2022-11-11T19:21:29;10.30;99.90
12948;DHT22;6539;49.476;8.484;2022-11-11T19:26:26;9.90;99.90
12948;DHT22;6539;49.476;8.484;2022-11-11T19:28:56;10.10;99.90
12948;DHT22;6539;49.476;8.484;2022-11-11T19:31:24;10.10;99.90
12948;DHT22;6539;49.476;8.484;2022-11-11T19:33:52;10.00;99.90
12948;DHT22;6539;49.476;8.484;2022-11-11T19:36:28;10.00;99.90
12948;DHT22;6539;49.476;8.484;2022-11-11T19:38:57;10.10;99.90
12948;DHT22;6539;49.476;8.484;2022-11-11T19:41:29;10.00;99.90
12948;DHT22;6539;49.476;8.484;2022-11-11T19:43:56;10.30;99.90
12948;DHT22;6539;49.476;8.484;2022-11-11T19:46:27;10.20;99.90
12948;DHT22;6539;49.476;8.484;2022-11-11T19:48:56;10.10;99.90
12948;DHT22;6539;49.476;8.484;2022-11-11T19:51:27;10.10;99.90
12948;DHT22;6539;49.476;8.484;2022-11-11T19:53:54;10.20;99.90
12948;DHT22;6539;49.476;8.484;2022-11-11T20:01:24;10.30;99.90
12948;DHT22;6539;49.476;8.484;2022-11-11T20:03:57;10.10;99.90
12948;DHT22;6539;49.476;8.484;2022-11-11T20:08:59;10.70;99.90
12948;DHT22;6539;49.476;8.484;2022-11-11T20:11:29;10.30;99.90
12948;DHT22;6539;49.476;8.484;2022-11-11T20:13:58;10.20;99.90
12948;DHT22;6539;49.476;8.484;2022-11-11T20:16:27;10.20;99.90
12948;DHT22;6539;49.476;8.484;2022-11-11T20:18:56;10.20;99.90
12948;DHT22;6539;49.476;8.484;2022-11-11T20:21:22;10.30;99.90
12948;DHT22;6539;49.476;8.484;2022-11-11T20:23:51;10.10;99.90
12948;DHT22;6539;49.476;8.484;2022-11-11T20:26:20;10.20;99.90
12948;DHT22;6539;49.476;8.484;2022-11-11T20:28:52;10.40;99.90
12948;DHT22;6539;49.476;8.484;2022-11-11T20:33:51;10.20;99.90
12948;DHT22;6539;49.476;8.484;2022-11-11T20:38:46;10.20;99.90
12948;DHT22;6539;49.476;8.484;2022-11-11T20:41:16;10.50;99.90
12948;DHT22;6539;49.476;8.484;2022-11-11T20:43:46;9.90;99.90
12948;DHT22;6539;49.476;8.484;2022-11-11T20:46:14;10.50;99.90
12948;DHT22;6539;49.476;8.484;2022-11-11T20:48:46;10.50;99.90
12948;DHT22;6539;49.476;8.484;2022-11-11T20:51:24;10.20;99.90
12948;DHT22;6539;49.476;8.484;2022-11-11T20:53:54;10.60;99.90
12948;DHT22;6539;49.476;8.484;2022-11-11T20:56:22;10.30;99.90
12948;DHT22;6539;49.476;8.484;2022-11-11T20:58:50;10.00;99.90
12948;DHT22;6539;49.476;8.484;2022-11-11T21:01:20;10.20;99.90
12948;DHT22;6539;49.476;8.484;2022-11-11T21:03:51;10.30;99.90
12948;DHT22;6539;49.476;8.484;2022-11-11T21:06:24;9.90;99.90
12948;DHT22;6539;49.476;8.484;2022-11-11T21:08:53;10.30;99.90
12948;DHT22;6539;49.476;8.484;2022-11-11T21:11:21;10.00;99.90
12948;DHT22;6539;49.476;8.484;2022-11-11T21:13:53;9.90;99.90
12948;DHT22;6539;49.476;8.484;2022-11-11T21:16:25;10.10;99.90
12948;DHT22;6539;49.476;8.484;2022-11-11T21:18:53;10.00;99.90
12948;DHT22;6539;49.476;8.484;2022-11-11T21:21:27;10.20;99.90
12948;DHT22;6539;49.476;8.484;2022-11-11T21:24:05;10.10;99.90
12948;DHT22;6539;49.476;8.484;2022-11-11T21:26:36;10.20;99.90
12948;DHT22;6539;49.476;8.484;2022-11-11T21:29:02;10.30;99.90
12948;DHT22;6539;49.476;8.484;2022-11-11T21:34:02;10.50;99.90